Terminal Aerodrome Forecast
Issued by NWS

Home | Current Version | Previous Version | Text Only | Print | Product List | Glossary On
Versions: 1 2 3 4 5 6 7 8 9 10 11 12 13 14 15 16 17 18 19 20 21 22 23 24 25 26
000
FTUS44 KTSA 191000 AAB
TAFBVO
TAF AMD
KBVO 191000Z 1910/2006 00000KT 4SM BR OVC006
     FM191600 00000KT P6SM OVC007
     FM191900 02004KT P6SM OVC012
     FM200000 00000KT P6SM BKN015=

USA.gov is the U.S. government's official web portal to all federal, state and local government web resources and services.